Mission, Canada
Current Conditions -  °F | °C
As of 7:00 PM on Tuesday 21 Oct 2014 (Local Time) from CYXX Reporting Station
Rain Showers Rain Showers  
Wind Chill: 15°   Ceiling: 2500
Heat Index: 15°   Visibility: 10mi
Dew Point:   Wind: 18mph
Humidity: 67%   Direction: 160°SSE
Pressure: 29.8"   Gusts: 26mph
Location:  49.13°N, 122.3°W
Report Text: CYXX 220200Z 16016G23KT 10SM -SHRA BKN025 OVC040 15/09 A2980 RMK SC5SC3 SLP093 DENSITY ALT 300FT
Loading
Personal Weather Stations






























Interactive Weather Map
Tropical Storm Tracking
New forecast layout! Learn more

10-Day Weather Forecast

Advertisements
Track Severe Weather on mobile